• Join FlightAware (Why Join?)
  • Login
  • US Flag 
09:23AM EDT


 

Airport Tracker/Info


-or-


 

Live Flight TrackerFlight Track Log ✈ DAL101 ✈ 27-Sep-2013 ✈ KATL - SAEZ / EZE

Flight Track Log - Related Links

Times and Time Zones

All times are in EDT time to prevent confusion due to time zone crossing. See the DAL101 flight status page for this flight to view local times or setup timezone preferences in your user account.

Time Position Orientation Groundspeed Altitude Reporting Facility
EDT Latitude Longitude Course Direction KTS MPH feet Rate Location/Type
09:40PM 33.6333 -84.3667 164° South 191 220 2,900  Level Atlanta TRACON
09:41PM 33.6000 -84.3000 121° Southeast 223 257 4,800 2,040 Climbing Atlanta TRACON
09:42PM 33.2779 -84.2539 168° South  Level Estimated
09:42PM 33.5500 -84.2667 151° Southeast 289 333 6,800  Level Atlanta TRACON
09:43PM 33.1582 -84.1963 164° South  Level Estimated
09:43PM 33.4667 -84.2833 189° South 287 330 9,500  Level Atlanta TRACON
09:44PM 33.0385 -84.1388 160° South  Level Estimated
09:44PM 33.3833 -84.2667 171° South 323 372 11,100  Level Atlanta TRACON
09:45PM 32.9147 -84.0956 164° South  Level FlightAware Approximate
09:45PM 33.2578 -84.2450 172° South 365 420 12,500  Level Atlanta Center
09:46PM 33.1492 -84.2150 167° South 391 450 14,400 1,740 Climbing Atlanta Center
09:47PM 33.0386 -84.1825 166° South 405 466 16,000 1,680 Climbing Atlanta Center
09:48PM 32.9217 -84.1428 164° South 412 474 17,800 1,680 Climbing Atlanta Center
09:50PM 32.6839 -84.0439 161° South 444 511 21,100 1,560 Climbing Atlanta Center
09:52PM 32.4606 -83.9536 161° South 467 537 23,800 1,440 Climbing Jacksonville Center
09:53PM 32.3317 -83.9006 161° South 478 550 25,200 1,440 Climbing Jacksonville Center
09:54PM 32.2025 -83.8475 161° South 492 566 26,700 1,620 Climbing Jacksonville Center
09:55PM 32.0714 -83.7922 160° South 499 574 28,500 1,380 Climbing Jacksonville Center
09:56PM 31.9361 -83.7372 161° South 504 580 29,500 1,140 Climbing Jacksonville Center
09:57PM 31.8175 -83.6847 159° South 504 580 30,800 660 Climbing Jacksonville Center
09:58PM 31.6800 -83.6347 163° South 504 580 30,900  Climbing Jacksonville Center
09:59PM 31.5425 -83.5800 161° South 512 589 30,900  Level Jacksonville Center
10:00PM 31.4111 -83.5303 162° South 512 589 30,900  Level Jacksonville Center
10:01PM 31.2758 -83.4758 161° South 512 589 30,900  Level Jacksonville Center
10:02PM 31.1422 -83.4242 162° South 507 583 30,900  Level Jacksonville Center
10:03PM 31.0131 -83.3700 160° South 501 577 30,900  Level Jacksonville Center
10:04PM 30.8797 -83.3186 162° South 501 577 30,900  Level Jacksonville Center
10:05PM 30.7503 -83.2625 160° South 501 577 30,900  Level Jacksonville Center
10:06PM 30.6231 -83.1992 157° South 501 577 30,900  Level Jacksonville Center
10:07PM 30.4939 -83.1361 157° South 501 577 30,900  Level Jacksonville Center
10:08PM 30.3644 -83.0708 156° South 501 577 30,900  Level Jacksonville Center
10:09PM 30.2394 -83.0081 157° South 501 577 30,900  Level Jacksonville Center
10:10PM 30.1142 -82.9431 156° South 501 577 30,900  Level Jacksonville Center
10:11PM 29.9742 -82.8781 158° South 496 571 30,900  Level Jacksonville Center
10:12PM 29.8489 -82.8158 157° South 491 565 30,900  Level Jacksonville Center
10:13PM 29.7214 -82.7539 157° South 497 572 30,900  Level Jacksonville Center
10:14PM 29.5983 -82.6919 156° South 497 572 30,900  Level Jacksonville Center
10:15PM 29.4686 -82.6278 157° South 497 572 30,900  Level Jacksonville Center
10:16PM 29.3456 -82.5661 156° South 497 572 30,900  Level Jacksonville Center
10:17PM 29.2178 -82.5072 158° South 497 572 30,900  Level Jacksonville Center
10:18PM 29.0944 -82.4458 156° South 497 572 30,900  Level Jacksonville Center
10:19PM 28.9753 -82.3703 151° Southeast 497 572 30,900  Level Jacksonville Center
10:20PM 28.8603 -82.2928 149° Southeast 487 560 30,900  Level Jacksonville Center
10:21PM 28.7408 -82.2131 150° Southeast 487 560 30,900  Level Jacksonville Center
10:22PM 28.6256 -82.1381 150° Southeast 487 560 30,900  Level Jacksonville Center
10:24PM 28.4150 -82.0017 150° Southeast 479 551 30,900  Level Miami Center
10:25PM 28.2928 -81.9231 150° Southeast 484 557 30,900  Level Miami Center
10:26PM 28.1786 -81.8472 150° Southeast 484 557 30,900  Level Miami Center
10:27PM 28.0600 -81.7714 151° Southeast 484 557 30,900  Level Miami Center
10:28PM 27.9394 -81.7028 153° Southeast 489 563 30,900  Level Miami Center
10:29PM 27.8186 -81.6344 153° Southeast 484 557 30,900  Level Miami Center
10:30PM 27.6997 -81.5661 153° Southeast 484 557 30,900  Level Miami Center
10:31PM 27.5911 -81.5006 152° Southeast 484 557 30,900  Level Miami Center
10:32PM 27.4703 -81.4325 153° Southeast 484 557 30,900  Level Miami Center
10:33PM 27.3350 -81.3547 153° Southeast 484 557 30,900  Level Miami Center
10:34PM 27.2222 -81.2897 153° Southeast 489 563 30,900  Level Miami Center
10:35PM 27.1050 -81.2247 154° Southeast 489 563 30,900  Level Miami Center
10:36PM 26.9819 -81.1547 153° Southeast 483 556 30,900  Level Miami Center
10:37PM 26.8528 -81.0778 152° Southeast 483 556 30,900  Level Miami Center
10:38PM 26.7294 -81.0106 154° Southeast 483 556 30,900  Level Miami Center
10:39PM 26.6347 -80.9561 153° Southeast 482 555 30,900  Level Miami Center
10:40PM 26.4989 -80.8842 155° Southeast 482 555 30,900  Level Miami Center
10:41PM 26.3653 -80.8100 154° Southeast 488 562 30,900  Level Miami Center
10:42PM 26.2564 -80.7483 153° Southeast 488 562 30,900  Level Miami Center
10:43PM 26.1308 -80.6750 152° Southeast 476 548 30,900  Level Miami Center
10:44PM 26.0114 -80.6064 153° Southeast 476 548 30,900  Level Miami Center
10:45PM 25.8900 -80.5403 154° Southeast 476 548 30,900  Level Miami Center
10:46PM 25.7767 -80.4744 152° Southeast 476 548 30,900  Level Miami Center
10:47PM 25.6508 -80.4108 155° Southeast 488 562 30,900  Level Miami Center
10:48PM 25.5542 -80.3481 150° Southeast 498 573 30,900  Level Miami Center
10:49PM 25.4306 -80.2686 150° Southeast 485 558 30,900  Level Miami Center
10:50PM 25.3175 -80.1919 148° Southeast 479 551 30,900  Level Miami Center
10:51PM 25.2022 -80.1153 149° Southeast 479 551 30,900  Level Miami Center
10:52PM 25.0911 -80.0367 147° Southeast 479 551 30,900  Level Miami Center
10:53PM 24.9844 -79.9469 143° Southeast 485 558 30,900  Level Miami Center
10:54PM 24.8797 -79.8550 141° Southeast 485 558 30,900  Level Miami Center
10:55PM 24.7772 -79.7586 140° Southeast 485 558 30,900  Level Miami Center
10:56PM 24.6744 -79.6647 140° Southeast 485 558 30,900  Level Miami Center
10:57PM 24.5719 -79.5689 140° Southeast 485 558 30,900  Level Miami Center
10:58PM 24.4711 -79.4731 139° Southeast 485 558 30,900  Level Miami Center
10:59PM 24.3619 -79.3908 146° Southeast 490 564 30,900  Level Miami Center
11:00PM 24.2503 -79.3089 146° Southeast 480 552 30,900 540 Level Miami Center
11:01PM 24.1367 -79.2383 150° Southeast 480 552 32,000 1,020 Climbing Miami Center
11:02PM 24.0250 -79.1636 149° Southeast 475 547 33,000 1,020 Climbing Miami Center
11:04PM 23.8142 -79.0837 161° South  Level Estimated
11:11PM 22.9624 -78.7637 161° South  Level Estimated
11:12PM 22.8407 -78.7183 161° South  Level Estimated
11:13PM 22.7189 -78.6730 161° South  Level Estimated
11:14PM 22.5972 -78.6278 161° South  Level Estimated
11:15PM 22.4754 -78.5826 161° South  Level Estimated
11:16PM 22.3536 -78.5375 161° South  Level Estimated
11:17PM 22.2318 -78.4926 161° South  Level Estimated
11:18PM 22.1100 -78.4476 161° South  Level Estimated
11:19PM 21.9882 -78.4028 161° South  Level Estimated
11:20PM 21.8663 -78.3581 161° South  Level Estimated
11:21PM 21.7445 -78.3134 161° South  Level Estimated
11:22PM 21.6226 -78.2688 161° South  Level Estimated
11:23PM 21.5007 -78.2243 161° South  Level Estimated
11:24PM 21.3789 -78.1798 161° South  Level Estimated
11:25PM 21.2570 -78.1354 161° South  Level Estimated
11:26PM 21.1351 -78.0911 161° South  Level Estimated
11:27PM 21.0131 -78.0469 161° South  Level Estimated
11:28PM 20.8912 -78.0027 161° South  Level Estimated
11:29PM 20.7693 -77.9586 161° South  Level Estimated
11:30PM 20.6473 -77.9146 161° South  Level Estimated
11:31PM 20.5254 -77.8707 161° South  Level Estimated
11:32PM 20.4034 -77.8268 161° South  Level Estimated
11:33PM 20.2814 -77.7830 161° South  Level Estimated
11:34PM 20.1594 -77.7392 161° South  Level Estimated
11:35PM 20.0374 -77.6956 161° South  Level Estimated
11:36PM 19.9154 -77.6520 161° South  Level Estimated
11:37PM 19.7934 -77.6084 161° South  Level Estimated
11:38PM 19.6713 -77.5649 161° South  Level Estimated
11:39PM 19.5493 -77.5216 161° South  Level Estimated
11:40PM 19.4272 -77.4782 161° South  Level Estimated
11:41PM 19.3051 -77.4349 162° South  Level Estimated
11:42PM 19.1831 -77.3917 162° South  Level Estimated
11:43PM 19.0610 -77.3486 162° South  Level Estimated
11:44PM 18.9389 -77.3055 162° South  Level Estimated
11:45PM 18.8168 -77.2625 162° South  Level Estimated
11:46PM 18.6946 -77.2195 162° South  Level Estimated
11:47PM 18.5725 -77.1767 162° South  Level Estimated
11:48PM 18.4504 -77.1338 162° South  Level Estimated
11:49PM 18.3282 -77.0910 162° South  Level Estimated
11:50PM 18.2061 -77.0483 162° South  Level Estimated
11:51PM 18.0839 -77.0057 162° South  Level Estimated
11:52PM 17.9617 -76.9631 162° South  Level Estimated
11:53PM 17.8395 -76.9206 162° South  Level Estimated
11:54PM 17.7173 -76.8781 162° South  Level Estimated
11:55PM 17.5951 -76.8357 162° South  Level Estimated
11:56PM 17.4729 -76.7933 162° South  Level Estimated
11:57PM 17.3507 -76.7510 162° South  Level Estimated
11:58PM 17.2285 -76.7088 162° South  Level Estimated
11:59PM 17.1062 -76.6666 162° South  Level Estimated
12:00AM 16.9840 -76.6245 162° South  Level Estimated
12:01AM 16.8617 -76.5824 162° South  Level Estimated
12:02AM 16.7394 -76.5404 162° South  Level Estimated
12:03AM 16.6172 -76.4984 162° South  Level Estimated
12:04AM 16.4949 -76.4565 162° South  Level Estimated
12:05AM 16.3726 -76.4146 162° South  Level Estimated
12:06AM 16.2503 -76.3728 162° South  Level Estimated
12:07AM 16.1280 -76.3310 162° South  Level Estimated
12:08AM 16.0057 -76.2893 162° South  Level Estimated
12:09AM 15.8834 -76.2477 162° South  Level Estimated
12:10AM 15.7610 -76.2060 162° South  Level Estimated
12:11AM 15.6387 -76.1645 162° South  Level Estimated
12:12AM 15.5163 -76.1230 162° South  Level Estimated
12:13AM 15.3940 -76.0815 162° South  Level Estimated
12:14AM 15.2716 -76.0401 162° South  Level Estimated
12:15AM 15.1492 -75.9987 162° South  Level Estimated
12:16AM 15.0269 -75.9574 162° South  Level Estimated
12:17AM 14.9045 -75.9162 162° South  Level Estimated
12:18AM 14.7821 -75.8749 162° South  Level Estimated
12:19AM 14.6597 -75.8338 162° South  Level Estimated
12:20AM 14.5373 -75.7926 162° South  Level Estimated
12:21AM 14.4149 -75.7516 162° South  Level Estimated
12:22AM 14.2924 -75.7105 162° South  Level Estimated
12:23AM 14.1700 -75.6695 162° South  Level Estimated
12:24AM 14.0476 -75.6286 162° South  Level Estimated
12:25AM 13.9251 -75.5877 162° South  Level Estimated
12:26AM 13.8027 -75.5468 162° South  Level Estimated
12:27AM 13.6802 -75.5060 162° South  Level Estimated
12:28AM 13.5578 -75.4652 162° South  Level Estimated
12:29AM 13.4353 -75.4245 162° South  Level Estimated
12:30AM 13.3128 -75.3838 162° South  Level Estimated
12:31AM 13.1903 -75.3432 162° South  Level Estimated
12:32AM 13.0678 -75.3026 162° South  Level Estimated
12:33AM 12.9453 -75.2620 162° South  Level Estimated
12:34AM 12.8229 -75.2215 162° South  Level Estimated
12:35AM 12.7003 -75.1810 162° South  Level Estimated
12:36AM 12.5768 -75.1402 162° South  Level Estimated
12:37AM 12.4532 -75.0994 162° South  Level Estimated
12:38AM 12.3296 -75.0587 162° South  Level Estimated
12:39AM 12.2061 -75.0180 162° South  Level Estimated
12:40AM 12.0825 -74.9774 162° South  Level Estimated
12:41AM 11.9589 -74.9368 162° South  Level Estimated
12:42AM 11.8353 -74.8962 162° South  Level Estimated
12:43AM 11.7117 -74.8557 162° South  Level Estimated
12:44AM 11.5881 -74.8152 162° South  Level Estimated
12:45AM 11.4645 -74.7747 162° South  Level Estimated
12:46AM 11.3408 -74.7343 162° South  Level Estimated
12:47AM 11.2172 -74.6939 162° South  Level Estimated
12:48AM 11.0936 -74.6536 162° South  Level Estimated
12:49AM 10.9700 -74.6132 162° South  Level Estimated
12:50AM 10.8463 -74.5730 162° South  Level Estimated
12:51AM 10.7227 -74.5327 162° South  Level Estimated
12:52AM 10.5990 -74.4925 162° South  Level Estimated
12:53AM 10.4754 -74.4523 162° South  Level Estimated
12:54AM 10.3517 -74.4121 162° South  Level Estimated
12:55AM 10.2280 -74.3720 162° South  Level Estimated
12:56AM 10.1044 -74.3319 162° South  Level Estimated
12:57AM 9.9807 -74.2919 162° South  Level Estimated
12:58AM 9.8570 -74.2518 162° South  Level Estimated
12:59AM 9.7333 -74.2118 162° South  Level Estimated
01:00AM 9.6096 -74.1719 162° South  Level Estimated
01:01AM 9.4860 -74.1319 162° South  Level Estimated
01:02AM 9.3623 -74.0920 162° South  Level Estimated
01:03AM 9.2386 -74.0521 162° South  Level Estimated
01:04AM 9.1148 -74.0123 162° South  Level Estimated
01:05AM 8.9911 -73.9725 162° South  Level Estimated
01:06AM 8.8674 -73.9326 162° South  Level Estimated
01:07AM 8.7437 -73.8929 162° South  Level Estimated
01:08AM 8.6200 -73.8531 162° South  Level Estimated
01:09AM 8.4962 -73.8134 162° South  Level Estimated
01:10AM 8.3725 -73.7737 162° South  Level Estimated
01:11AM 8.2488 -73.7340 162° South  Level Estimated
01:12AM 8.1250 -73.6944 162° South  Level Estimated
01:13AM 8.0013 -73.6548 162° South  Level Estimated
01:14AM 7.8775 -73.6152 162° South  Level Estimated
01:15AM 7.7538 -73.5756 162° South  Level Estimated
01:16AM 7.6300 -73.5360 162° South  Level Estimated
01:17AM 7.5063 -73.4965 162° South  Level Estimated
01:18AM 7.3825 -73.4570 162° South  Level Estimated
01:19AM 7.2587 -73.4175 162° South  Level Estimated
01:20AM 7.1350 -73.3781 162° South  Level Estimated
01:21AM 7.0112 -73.3386 162° South  Level Estimated
01:22AM 6.8874 -73.2992 162° South  Level Estimated
01:23AM 6.7636 -73.2598 162° South  Level Estimated
01:24AM 6.6399 -73.2204 162° South  Level Estimated
01:25AM 6.5161 -73.1811 162° South  Level Estimated
01:26AM 6.3923 -73.1417 162° South  Level Estimated
01:27AM 6.2685 -73.1024 162° South  Level Estimated
01:28AM 6.1447 -73.0631 162° South  Level Estimated
01:29AM 6.0209 -73.0238 162° South  Level Estimated
01:30AM 5.8984 -72.9850 162° South  Level Estimated
01:31AM 5.7759 -72.9461 162° South  Level Estimated
01:32AM 5.6534 -72.9073 162° South  Level Estimated
01:33AM 5.5309 -72.8685 163° South  Level Estimated
01:34AM 5.4083 -72.8297 163° South  Level Estimated
01:35AM 5.2858 -72.7909 163° South  Level Estimated
01:36AM 5.1633 -72.7522 163° South  Level Estimated
01:37AM 5.0408 -72.7134 163° South  Level Estimated
01:38AM 4.9183 -72.6747 163° South  Level Estimated
01:39AM 4.7957 -72.6360 163° South  Level Estimated
01:40AM 4.6732 -72.5973 163° South  Level Estimated
01:41AM 4.5507 -72.5586 163° South  Level Estimated
01:42AM 4.4281 -72.5200 163° South  Level Estimated
01:43AM 4.3056 -72.4813 163° South  Level Estimated
01:44AM 4.1831 -72.4426 163° South  Level Estimated
01:45AM 4.0605 -72.4040 163° South  Level Estimated
01:46AM 3.9380 -72.3654 163° South  Level Estimated
01:47AM 3.8154 -72.3268 163° South  Level Estimated
01:48AM 3.6929 -72.2882 163° South  Level Estimated
01:49AM 3.5703 -72.2496 163° South  Level Estimated
01:50AM 3.4478 -72.2110 163° South  Level Estimated
01:51AM 3.3252 -72.1724 163° South  Level Estimated
01:52AM 3.2027 -72.1339 163° South  Level Estimated
01:53AM 3.0801 -72.0953 163° South  Level Estimated
01:54AM 2.9576 -72.0568 163° South  Level Estimated
01:55AM 2.8350 -72.0182 163° South  Level Estimated
01:56AM 2.7125 -71.9797 163° South  Level Estimated
01:57AM 2.5899 -71.9412 163° South  Level Estimated
01:58AM 2.4673 -71.9027 163° South  Level Estimated
01:59AM 2.3448 -71.8642 163° South  Level Estimated
02:00AM 2.2222 -71.8257 163° South  Level Estimated
02:01AM 2.0997 -71.7872 163° South  Level Estimated
02:02AM 1.9771 -71.7487 163° South  Level Estimated
02:03AM 1.8545 -71.7102 163° South  Level Estimated
02:04AM 1.7320 -71.6718 163° South  Level Estimated
02:05AM 1.6094 -71.6333 163° South  Level Estimated
02:06AM 1.4868 -71.5948 163° South  Level Estimated
02:07AM 1.3643 -71.5564 163° South  Level Estimated
02:08AM 1.2417 -71.5179 163° South  Level Estimated
02:09AM 1.1191 -71.4795 163° South  Level Estimated
02:10AM 0.9966 -71.4410 163° South  Level Estimated
02:11AM 0.8740 -71.4026 163° South  Level Estimated
02:12AM 0.7514 -71.3641 163° South  Level Estimated
02:13AM 0.6288 -71.3257 163° South  Level Estimated
02:14AM 0.5063 -71.2872 163° South  Level Estimated
02:15AM 0.3837 -71.2488 163° South  Level Estimated
02:16AM 0.2611 -71.2104 163° South  Level Estimated
02:17AM 0.1386 -71.1719 163° South  Level Estimated
02:18AM 0.0160 -71.1335 163° South  Level Estimated
02:19AM -0.1066 -71.0950 163° South  Level Estimated
02:20AM -0.2291 -71.0566 163° South  Level Estimated
02:21AM -0.3517 -71.0182 163° South  Level Estimated
02:22AM -0.4743 -70.9797 163° South  Level Estimated
02:23AM -0.5969 -70.9413 163° South  Level Estimated
02:24AM -0.7194 -70.9028 163° South  Level Estimated
02:25AM -0.8420 -70.8644 163° South  Level Estimated
02:26AM -0.9646 -70.8260 163° South  Level Estimated
02:27AM -1.0871 -70.7875 163° South  Level Estimated
02:28AM -1.2097 -70.7490 163° South  Level Estimated
02:29AM -1.3323 -70.7106 163° South  Level Estimated
02:30AM -1.4548 -70.6721 163° South  Level Estimated
02:31AM -1.5774 -70.6337 163° South  Level Estimated
02:32AM -1.6996 -70.5953 163° South  Level Estimated
02:33AM -1.8217 -70.5570 163° South  Level Estimated
02:34AM -1.9438 -70.5187 163° South  Level Estimated
02:35AM -2.0660 -70.4803 163° South  Level Estimated
02:36AM -2.1881 -70.4419 163° South  Level Estimated
02:37AM -2.3103 -70.4036 163° South  Level Estimated
02:38AM -2.4324 -70.3652 163° South  Level Estimated
02:39AM -2.5545 -70.3268 163° South  Level Estimated
02:40AM -2.6767 -70.2885 163° South  Level Estimated
02:41AM -2.7988 -70.2501 163° South  Level Estimated
02:42AM -2.9209 -70.2117 163° South  Level Estimated
02:43AM -3.0431 -70.1733 163° South  Level Estimated
02:44AM -3.1652 -70.1348 163° South  Level Estimated
02:45AM -3.2873 -70.0964 163° South  Level Estimated
02:46AM -3.4094 -70.0580 163° South  Level Estimated
02:47AM -3.5316 -70.0195 163° South  Level Estimated
02:48AM -3.6537 -69.9811 163° South  Level Estimated
02:49AM -3.7758 -69.9426 163° South  Level Estimated
02:50AM -3.8979 -69.9042 163° South  Level Estimated
02:51AM -4.0200 -69.8657 163° South  Level Estimated
02:52AM -4.1422 -69.8272 163° South  Level Estimated
02:53AM -4.2643 -69.7887 163° South  Level Estimated
02:54AM -4.3864 -69.7501 163° South  Level Estimated
02:55AM -4.5085 -69.7116 163° South  Level Estimated
02:56AM -4.6306 -69.6731 163° South  Level Estimated
02:57AM -4.7527 -69.6345 163° South  Level Estimated
02:58AM -4.8748 -69.5959 163° South  Level Estimated
02:59AM -4.9969 -69.5573 163° South  Level Estimated
03:00AM -5.1190 -69.5187 163° South  Level Estimated
03:01AM -5.2411 -69.4801 163° South  Level Estimated
03:02AM -5.3632 -69.4415 163° South  Level Estimated
03:03AM -5.4853 -69.4028 163° South  Level Estimated
03:04AM -5.6074 -69.3642 163° South  Level Estimated
03:05AM -5.7295 -69.3255 163° South  Level Estimated
03:06AM -5.8516 -69.2868 162° South  Level Estimated
03:07AM -5.9736 -69.2481 162° South  Level Estimated
03:08AM -6.0957 -69.2094 162° South  Level Estimated
03:09AM -6.2178 -69.1706 162° South  Level Estimated
03:10AM -6.3399 -69.1318 162° South  Level Estimated
03:11AM -6.4619 -69.0930 162° South  Level Estimated
03:12AM -6.5840 -69.0543 162° South  Level Estimated
03:13AM -6.7061 -69.0154 162° South  Level Estimated
03:14AM -6.8288 -68.9764 162° South  Level Estimated
03:15AM -6.9515 -68.9373 162° South  Level Estimated
03:16AM -7.0742 -68.8982 162° South  Level Estimated
03:17AM -7.1968 -68.8591 162° South  Level Estimated
03:18AM -7.3195 -68.8200 162° South  Level Estimated
03:19AM -7.4422 -68.7808 162° South  Level Estimated
03:20AM -7.5649 -68.7417 162° South  Level Estimated
03:21AM -7.6876 -68.7025 162° South  Level Estimated
03:22AM -7.8102 -68.6633 162° South  Level Estimated
03:23AM -7.9329 -68.6240 162° South  Level Estimated
03:24AM -8.0556 -68.5847 162° South  Level Estimated
03:25AM -8.1782 -68.5455 162° South  Level Estimated
03:26AM -8.3009 -68.5061 162° South  Level Estimated
03:27AM -8.4235 -68.4668 162° South  Level Estimated
03:28AM -8.5462 -68.4275 162° South  Level Estimated
03:29AM -8.6688 -68.3881 162° South  Level Estimated
03:30AM -8.7915 -68.3486 162° South  Level Estimated
03:31AM -8.9141 -68.3092 162° South  Level Estimated
03:32AM -9.0368 -68.2698 162° South  Level Estimated
03:33AM -9.1594 -68.2303 162° South  Level Estimated
03:34AM -9.2820 -68.1907 162° South  Level Estimated
03:35AM -9.4046 -68.1512 162° South  Level Estimated
03:36AM -9.5273 -68.1116 162° South  Level Estimated
03:37AM -9.6499 -68.0720 162° South  Level Estimated
03:38AM -9.7725 -68.0324 162° South  Level Estimated
03:39AM -9.8951 -67.9927 162° South  Level Estimated
03:40AM -10.0177 -67.9530 162° South  Level Estimated
03:41AM -10.1403 -67.9133 162° South  Level Estimated
03:42AM -10.2629 -67.8736 162° South  Level Estimated
03:43AM -10.3854 -67.8338 162° South  Level Estimated
03:44AM -10.5080 -67.7940 162° South  Level Estimated
03:45AM -10.6306 -67.7541 162° South  Level Estimated
03:46AM -10.7532 -67.7143 162° South  Level Estimated
03:47AM -10.8757 -67.6743 162° South  Level Estimated
03:48AM -10.9983 -67.6344 162° South  Level Estimated
03:49AM -11.1208 -67.5944 162° South  Level Estimated
03:50AM -11.2434 -67.5544 162° South  Level Estimated
03:51AM -11.3659 -67.5144 162° South  Level Estimated
03:52AM -11.4885 -67.4743 162° South  Level Estimated
03:53AM -11.6110 -67.4342 162° South  Level Estimated
03:54AM -11.7335 -67.3941 162° South  Level Estimated
03:55AM -11.8560 -67.3539 162° South  Level Estimated
03:56AM -11.9786 -67.3137 162° South  Level Estimated
03:57AM -12.1011 -67.2734 162° South  Level Estimated
03:58AM -12.2236 -67.2331 162° South  Level Estimated
03:59AM -12.3461 -67.1928 162° South  Level Estimated
04:00AM -12.4686 -67.1524 162° South  Level Estimated
04:01AM -12.5911 -67.1120 162° South  Level Estimated
04:02AM -12.7135 -67.0715 162° South  Level Estimated
04:03AM -12.8360 -67.0311 162° South  Level Estimated
04:04AM -12.9585 -66.9905 162° South  Level Estimated
04:05AM -13.0809 -66.9500 162° South  Level Estimated
04:06AM -13.2034 -66.9094 162° South  Level Estimated
04:07AM -13.3258 -66.8688 162° South  Level Estimated
04:08AM -13.4483 -66.8281 162° South  Level Estimated
04:09AM -13.5707 -66.7873 162° South  Level Estimated
04:10AM -13.6932 -66.7466 162° South  Level Estimated
04:11AM -13.8156 -66.7058 162° South  Level Estimated
04:12AM -13.9380 -66.6649 162° South  Level Estimated
04:13AM -14.0604 -66.6240 162° South  Level Estimated
04:14AM -14.1828 -66.5831 162° South  Level Estimated
04:15AM -14.3052 -66.5421 162° South  Level Estimated
04:16AM -14.4276 -66.5011 162° South  Level Estimated
04:17AM -14.5500 -66.4600 162° South  Level Estimated
04:18AM -14.6723 -66.4189 162° South  Level Estimated
04:19AM -14.7947 -66.3777 162° South  Level Estimated
04:20AM -14.9171 -66.3365 162° South  Level Estimated
04:21AM -15.0394 -66.2952 162° South  Level Estimated
04:22AM -15.1618 -66.2539 162° South  Level Estimated
04:23AM -15.2841 -66.2126 162° South  Level Estimated
04:24AM -15.4065 -66.1712 162° South  Level Estimated
04:25AM -15.5288 -66.1297 162° South  Level Estimated
04:26AM -15.6511 -66.0882 162° South  Level Estimated
04:27AM -15.7734 -66.0467 162° South  Level Estimated
04:28AM -15.8951 -66.0053 162° South  Level Estimated
04:29AM -16.0167 -65.9639 162° South  Level Estimated
04:30AM -16.1383 -65.9224 162° South  Level Estimated
04:31AM -16.2600 -65.8808 162° South  Level Estimated
04:32AM -16.3816 -65.8392 162° South  Level Estimated
04:33AM -16.5032 -65.7976 162° South  Level Estimated
04:34AM -16.6248 -65.7559 162° South  Level Estimated
04:35AM -16.7465 -65.7142 162° South  Level Estimated
04:36AM -16.8681 -65.6724 162° South  Level Estimated
04:37AM -16.9897 -65.6305 162° South  Level Estimated
04:38AM -17.1112 -65.5886 162° South  Level Estimated
04:39AM -17.2328 -65.5467 162° South  Level Estimated
04:40AM -17.3544 -65.5046 162° South  Level Estimated
04:41AM -17.4759 -65.4626 162° South  Level Estimated
04:42AM -17.5975 -65.4204 162° South  Level Estimated
04:43AM -17.7190 -65.3783 162° South  Level Estimated
04:44AM -17.8405 -65.3360 162° South  Level Estimated
04:45AM -17.9620 -65.2937 162° South  Level Estimated
04:46AM -18.0835 -65.2514 162° South  Level Estimated
04:47AM -18.2050 -65.2089 162° South  Level Estimated
04:48AM -18.3265 -65.1665 162° South  Level Estimated
04:49AM -18.4480 -65.1239 162° South  Level Estimated
04:50AM -18.5695 -65.0813 162° South  Level Estimated
04:51AM -18.6910 -65.0387 162° South  Level Estimated
04:52AM -18.8124 -64.9959 162° South  Level Estimated
04:53AM -18.9338 -64.9532 162° South  Level Estimated
04:54AM -19.0553 -64.9103 162° South  Level Estimated
04:55AM -19.1767 -64.8674 162° South  Level Estimated
04:56AM -19.2981 -64.8244 162° South  Level Estimated
04:57AM -19.4195 -64.7814 162° South  Level Estimated
04:58AM -19.5409 -64.7383 162° South  Level Estimated
04:59AM -19.6623 -64.6952 161° South  Level Estimated
05:00AM -19.7836 -64.6519 161° South  Level Estimated
05:01AM -19.9050 -64.6086 161° South  Level Estimated
05:02AM -20.0264 -64.5653 161° South  Level Estimated
05:03AM -20.1477 -64.5219 161° South  Level Estimated
05:04AM -20.2690 -64.4784 161° South  Level Estimated
05:05AM -20.3903 -64.4348 161° South  Level Estimated
05:06AM -20.5117 -64.3912 161° South  Level Estimated
05:07AM -20.6329 -64.3475 161° South  Level Estimated
05:08AM -20.7542 -64.3037 161° South  Level Estimated
05:09AM -20.8755 -64.2599 161° South  Level Estimated
05:10AM -20.9968 -64.2160 161° South  Level Estimated
05:11AM -21.1180 -64.1720 161° South  Level Estimated
05:12AM -21.2393 -64.1279 161° South  Level Estimated
05:13AM -21.3605 -64.0838 161° South  Level Estimated
05:14AM -21.4817 -64.0396 161° South  Level Estimated
05:15AM -21.6029 -63.9953 161° South  Level Estimated
05:16AM -21.7241 -63.9510 161° South  Level Estimated
05:17AM -21.8453 -63.9066 161° South  Level Estimated
05:18AM -21.9665 -63.8620 161° South  Level Estimated
05:19AM -22.0876 -63.8175 161° South  Level Estimated
05:20AM -22.2088 -63.7728 161° South  Level Estimated
05:21AM -22.3299 -63.7281 161° South  Level Estimated
05:22AM -22.4510 -63.6833 161° South  Level Estimated
05:23AM -22.5721 -63.6384 161° South  Level Estimated
05:24AM -22.6932 -63.5935 161° South  Level Estimated
05:25AM -22.8143 -63.5484 161° South  Level Estimated
05:26AM -22.9354 -63.5033 161° South  Level Estimated
05:27AM -23.0564 -63.4581 161° South  Level Estimated
05:28AM -23.1775 -63.4128 161° South  Level Estimated
05:29AM -23.2985 -63.3675 161° South  Level Estimated
05:30AM -23.4195 -63.3220 161° South  Level Estimated
05:31AM -23.5406 -63.2765 161° South  Level Estimated
05:32AM -23.6615 -63.2309 161° South  Level Estimated
05:33AM -23.7825 -63.1852 161° South  Level Estimated
05:34AM -23.9035 -63.1394 161° South  Level Estimated
05:35AM -24.0244 -63.0935 161° South  Level Estimated
05:36AM -24.1454 -63.0476 161° South  Level Estimated
05:37AM -24.2663 -63.0015 161° South  Level Estimated
05:38AM -24.3872 -62.9554 161° South  Level Estimated
05:39AM -24.5081 -62.9092 161° South  Level Estimated
05:40AM -24.6290 -62.8629 161° South  Level Estimated
05:41AM -24.7499 -62.8164 161° South  Level Estimated
05:42AM -24.8707 -62.7700 161° South  Level Estimated
05:43AM -24.9914 -62.7235 161° South  Level Estimated
05:44AM -25.1120 -62.6769 161° South  Level Estimated
05:45AM -25.2326 -62.6302 161° South  Level Estimated
05:46AM -25.3532 -62.5834 161° South  Level Estimated
05:47AM -25.4737 -62.5365 161° South  Level Estimated
05:48AM -25.5943 -62.4896 161° South  Level Estimated
05:49AM -25.7148 -62.4425 161° South  Level Estimated
05:50AM -25.8354 -62.3954 161° South  Level Estimated
05:51AM -25.9559 -62.3481 161° South  Level Estimated
05:52AM -26.0764 -62.3008 161° South  Level Estimated
05:53AM -26.1969 -62.2533 161° South  Level Estimated
05:54AM -26.3173 -62.2058 161° South  Level Estimated
05:55AM -26.4378 -62.1582 160° South  Level Estimated
05:56AM -26.5582 -62.1104 160° South  Level Estimated
05:57AM -26.6786 -62.0626 160° South  Level Estimated
05:58AM -26.7990 -62.0146 160° South  Level Estimated
05:59AM -26.9194 -61.9666 160° South  Level Estimated
06:00AM -27.0398 -61.9184 160° South  Level Estimated
06:01AM -27.1601 -61.8702 160° South  Level Estimated
06:02AM -27.2805 -61.8218 160° South  Level Estimated
06:03AM -27.4008 -61.7734 160° South  Level Estimated
06:04AM -27.5211 -61.7248 160° South  Level Estimated
06:05AM -27.6414 -61.6762 160° South  Level Estimated
06:06AM -27.7617 -61.6274 160° South  Level Estimated
06:07AM -27.8819 -61.5785 160° South  Level Estimated
06:08AM -28.0021 -61.5295 160° South  Level Estimated
06:09AM -28.1224 -61.4804 160° South  Level Estimated
06:10AM -28.2426 -61.4312 160° South  Level Estimated
06:11AM -28.3627 -61.3819 160° South  Level Estimated
06:12AM -28.4829 -61.3324 160° South  Level Estimated
06:13AM -28.6031 -61.2829 160° South  Level Estimated
06:14AM -28.7232 -61.2332 160° South  Level Estimated
06:15AM -28.8433 -61.1834 160° South  Level Estimated
06:16AM -28.9634 -61.1335 160° South  Level Estimated
06:17AM -29.0835 -61.0835 160° South  Level Estimated
06:18AM -29.2035 -61.0334 160° South  Level Estimated
06:19AM -29.3236 -60.9832 160° South  Level Estimated
06:20AM -29.4436 -60.9328 160° South  Level Estimated
06:21AM -29.5636 -60.8823 160° South  Level Estimated
06:22AM -29.6836 -60.8317 160° South  Level Estimated
06:23AM -29.8035 -60.7810 160° South  Level Estimated
06:24AM -29.9235 -60.7302 160° South  Level Estimated
06:25AM -30.0434 -60.6792 160° South  Level Estimated
06:26AM -30.1633 -60.6281 160° South  Level Estimated
06:27AM -30.2832 -60.5769 160° South  Level Estimated
06:28AM -30.4030 -60.5256 160° South  Level Estimated
06:29AM -30.5229 -60.4741 160° South  Level Estimated
06:30AM -30.6427 -60.4225 160° South  Level Estimated
06:31AM -30.7625 -60.3708 160° South  Level Estimated
06:32AM -30.8823 -60.3190 160° South  Level Estimated
06:33AM -31.0018 -60.2671 160° South  Level Estimated
06:34AM -31.1213 -60.2150 160° South  Level Estimated
06:35AM -31.2409 -60.1629 160° South  Level Estimated
06:36AM -31.3603 -60.1106 160° South  Level Estimated
06:37AM -31.4798 -60.0582 159° South  Level Estimated
06:38AM -31.5993 -60.0056 159° South  Level Estimated
06:39AM -31.7187 -59.9530 159° South  Level Estimated
06:40AM -31.8381 -59.9001 159° South  Level Estimated
06:41AM -31.9575 -59.8472 159° South  Level Estimated
06:42AM -32.0768 -59.7941 159° South  Level Estimated
06:43AM -32.1962 -59.7409 159° South  Level Estimated
06:44AM -32.3155 -59.6875 159° South  Level Estimated
06:45AM -32.4348 -59.6340 159° South  Level Estimated
06:46AM -32.5541 -59.5803 159° South  Level Estimated
06:47AM -32.6733 -59.5265 159° South  Level Estimated
06:48AM -32.7925 -59.4726 159° South  Level Estimated
06:49AM -32.9117 -59.4185 159° South  Level Estimated
06:50AM -33.0309 -59.3643 159° South  Level Estimated
06:51AM -33.1501 -59.3099 159° South  Level Estimated
06:52AM -33.2692 -59.2553 159° South  Level Estimated
06:53AM -33.3883 -59.2007 159° South  Level Estimated
06:54AM -33.5074 -59.1458 159° South  Level Estimated
06:55AM -33.6264 -59.0909 159° South  Level Estimated
06:56AM -33.7455 -59.0357 159° South  Level Estimated
06:57AM -33.8645 -58.9804 159° South  Level Estimated
06:58AM -33.9835 -58.9250 159° South  Level Estimated
06:59AM -34.1024 -58.8694 159° South  Level Estimated
07:00AM -34.2214 -58.8137 159° South  Level Estimated
07:01AM -34.3403 -58.7578 159° South  Level Estimated
07:02AM -34.4591 -58.7017 159° South  Level Estimated
07:03AM -34.5780 -58.6455 159° South  Level Estimated
07:04AM -34.6968 -58.5891 159° South  Level Estimated
07:05AM -34.8156 -58.5325 159° South  Level Estimated
07:06AM -34.8235 -58.5288 159° South  Level Estimated
07:07AM -34.8235 -58.5288 231° Southwest  Level Estimated
07:08AM -34.8235 -58.5288 231° Southwest  Level Estimated
07:09AM -34.8235 -58.5288 231° Southwest  Level Estimated
07:10AM -34.8235 -58.5288 231° Southwest  Level Estimated
07:11AM -34.8235 -58.5288 231° Southwest  Level Estimated
07:12AM -34.8235 -58.5288 231° Southwest  Level Estimated
07:13AM -34.8235 -58.5288 231° Southwest  Level Estimated
07:14AM -34.8235 -58.5288 231° Southwest  Level Estimated
07:15AM -34.8235 -58.5288 231° Southwest  Level Estimated
07:16AM -34.8235 -58.5288 231° Southwest  Level Estimated
07:17AM -34.8235 -58.5288 231° Southwest  Level Estimated
07:18AM -34.8235 -58.5288 231° Southwest  Level Estimated
07:19AM -34.8235 -58.5288 231° Southwest  Level Estimated
07:20AM -34.8235 -58.5288 231° Southwest  Level Estimated